Home > Products > Valid Products > TAF

000
FTUS45 KGGW 182300
TAFGDV
TAF
KGDV 182324Z 1900/1924 32015G25KT P6SM VCSH BKN060
     FM190900 25015KT P6SM SCT250
      AMD LTD TO CLD VIS AND WIND=



000
FTUS45 KGGW 182300
TAFSDY
TAF
KSDY 182324Z 1900/1924 30015G25KT P6SM VCSH OVC060
     FM190900 27018KT P6SM SCT250
      AMD LTD TO CLD VIS AND WIND=



000
FTUS45 KGGW 182300
TAFGGW
TAF
KGGW 182324Z 1900/1924 12010KT P6SM -SHRA SCT050 BKN090
      TEMPO 1900/1902 VRB25G40KT 4SM -TSRA BKN040CB
     FM190200 28016G26KT P6SM SCT100 BKN250
     FM190600 27015KT P6SM SCT250=



000
FTUS45 KGGW 182300
TAFOLF
TAF
KOLF 182324Z 1900/1924 VRB06KT P6SM SCT050 BKN080
      TEMPO 1901/1902 27025G40KT 5SM TSRA BKN040CB
     FM190600 27014KT P6SM SCT250=



000
FTUS45 KGGW 181700
TAFGGW
TAF
KGGW 181740Z 1818/1918 12018KT P6SM -SHRA BKN090
     FM182000 22013KT P6SM -SHRA BKN070
     FM190000 28016KT P6SM SCT100=



000
FTUS45 KGGW 181700
TAFGDV
TAF
KGDV 181740Z 1818/1918 13013KT P6SM BKN110
     FM182100 24010KT P6SM -SHRA BKN080
     FM190100 28015KT P6SM SCT100
      AMD LTD TO CLD VIS AND WIND=



000
FTUS45 KGGW 181700
TAFOLF
TAF
KOLF 181740Z 1818/1918 10017KT P6SM OVC070
     FM182000 20012KT P6SM -SHRA OVC050
     FM182300 27014KT P6SM BKN070
     FM190100 28016KT P6SM SCT100=



000
FTUS45 KGGW 181700
TAFSDY
TAF
KSDY 181740Z 1818/1918 12015KT P6SM BKN100
     FM182200 22012KT P6SM -SHRA BKN050
     FM190200 25016KT P6SM SCT100
      AMD LTD TO CLD VIS AND WIND=



000
FTUS45 KGGW 181100
TAFSDY
TAF
KSDY 181129Z 1812/1912 12010KT P6SM OVC090
     FM181500 15014KT P6SM SCT050 BKN100
     FM181900 16014KT P6SM -SHRA SCT030 OVC050
     FM182200 26014KT P6SM BKN070
     FM190200 28014KT P6SM SCT100
      AMD LTD TO CLD VIS AND WIND=



000
FTUS45 KGGW 181100
TAFGDV
TAF
KGDV 181129Z 1812/1912 12011KT P6SM OVC100
     FM181700 19009KT P6SM -SHRA SCT035 OVC050
     FM182200 29010KT P6SM BKN080
     FM190100 28015KT P6SM SCT100
      AMD LTD TO CLD VIS AND WIND=



000
FTUS45 KGGW 181100
TAFOLF
TAF
KOLF 181129Z 1812/1912 09011KT P6SM OVC090
     FM181600 11011KT P6SM VCSH SCT050 OVC080
     FM181800 13011KT P6SM -SHRA SCT030 OVC050
     FM182100 27014KT P6SM BKN070
     FM190100 28011KT P6SM SCT100=



000
FTUS45 KGGW 181100
TAFGGW
TAF
KGGW 181129Z 1812/1912 10018KT P6SM BKN090
     FM181500 11015KT P6SM VCSH SCT050 OVC070
     FM181700 22011KT P6SM -SHRA SCT030 OVC050
     FM182000 27017KT P6SM BKN070
     FM190000 28014KT P6SM SCT100=



000
FTUS45 KGGW 180500
TAFSDY
TAF
KSDY 180528Z 1806/1906 12011G17KT 6SM -RA SCT040 OVC060
     FM180900 10007KT P6SM VCSH SCT070 BKN120
     FM181500 15014G22KT P6SM SCT080 BKN150
     FM182100 17009KT 6SM -RA SCT040 OVC060
     FM190100 28013G19KT P6SM FEW080 SCT250
      AMD LTD TO CLD VIS AND WIND=



000
FTUS45 KGGW 180500
TAFGDV
TAF
KGDV 180528Z 1806/1906 12011KT P6SM SCT070 OVC100
     FM181200 13013G19KT P6SM SCT120
     FM181830 24009KT P6SM VCSH SCT070 OVC110
     FM190030 31015G25KT P6SM SCT080
      AMD LTD TO CLD VIS AND WIND=



000
FTUS45 KGGW 180500
TAFOLF
TAF
KOLF 180528Z 1806/1906 07012KT 6SM -RA SCT030 OVC050
     FM181000 08011KT P6SM VCSH SCT070 BKN120
     FM181830 13011KT 6SM -RA SCT040 OVC060
     FM182300 27013G19KT P6SM FEW070 SCT250=



000
FTUS45 KGGW 180500
TAFGGW
TAF
KGGW 180528Z 1806/1906 10018G26KT 6SM -RA SCT040 OVC060
     FM180930 11016KT P6SM SCT090 BKN200
     FM181200 11015KT P6SM VCSH SCT050 OVC070
     FM181800 22011KT 6SM -RA SCT030 OVC050
     FM182200 27016G25KT P6SM SCT070=



000
FTUS45 KGGW 172300
TAFGDV
TAF
KGDV 172332Z 1800/1824 14015KT P6SM SCT050 OVC090
     FM180200 14015KT P6SM VCSH BKN050 OVC100
     FM180700 13014KT P6SM BKN100
     FM182200 27013KT P6SM VCSH BKN050 OVC100
      AMD LTD TO CLD VIS AND WIND=



000
FTUS45 KGGW 172300
TAFSDY
TAF
KSDY 172332Z 1800/1824 14015G23KT P6SM FEW050 BKN100
     FM180300 13015KT P6SM VCSH BKN050 OVC100
     FM180700 13015KT P6SM OVC100
     FM182100 22014KT P6SM VCSH BKN050 OVC100
      AMD LTD TO CLD VIS AND WIND=



000
FTUS45 KGGW 172300
TAFGGW
TAF
KGGW 172332Z 1800/1824 12016KT P6SM BKN100
     FM180100 13016KT P6SM VCSH SCT050 OVC100
     FM180600 13015KT P6SM OVC100
     FM181800 24018KT P6SM VCSH BKN050=



000
FTUS45 KGGW 172300
TAFOLF
TAF
KOLF 172332Z 1800/1824 13015KT P6SM FEW050 OVC100
     FM180100 10015KT P6SM VCSH BKN050 OVC100
     FM180600 11014KT P6SM OVC100
     FM181900 24015KT P6SM VCSH OVC050=



000
FTUS45 KGGW 171700
TAFSDY
TAF
KSDY 171722Z 1718/1818 14015G23KT P6SM BKN035
      TEMPO 1718/1720 BKN030
     FM172000 14015KT P6SM BKN060
     FM180000 13012KT P6SM BKN100
      AMD LTD TO CLD VIS AND WIND=



000
FTUS45 KGGW 171700
TAFGGW
TAF
KGGW 171722Z 1718/1818 12016KT P6SM BKN050
     FM180100 10016KT P6SM BKN100=



000
FTUS45 KGGW 171700
TAFOLF
TAF
KOLF 171722Z 1718/1818 12012G20KT P6SM SCT030 BKN050
     FM180000 08011KT P6SM BKN100=



000
FTUS45 KGGW 171700
TAFGDV
TAF
KGDV 171722Z 1718/1818 12009KT P6SM BKN040
      TEMPO 1718/1720 BKN030
     FM172000 14014KT P6SM BKN060
     FM180100 14010KT P6SM BKN090
      AMD LTD TO CLD VIS AND WIND=



000
FTUS45 KGGW 171100
TAFOLF
TAF
KOLF 171125Z 1712/1812 10010KT P6SM BKN035
     FM180000 08011KT P6SM BKN080=



000
FTUS45 KGGW 171100
TAFGDV
TAF
KGDV 171125Z 1712/1812 12009KT P6SM BKN060
     FM171800 14014KT P6SM BKN050
     FM180100 11010KT P6SM BKN080
      AMD LTD TO CLD VIS AND WIND=



000
FTUS45 KGGW 171100
TAFGGW
TAF
KGGW 171125Z 1712/1812 11014KT P6SM BKN060
     FM171800 13014KT P6SM BKN040
     FM180100 10016KT P6SM BKN100=



000
FTUS45 KGGW 171100
TAFSDY
TAF
KSDY 171125Z 1712/1812 11010KT P6SM SCT029 BKN035
      TEMPO 1712/1713 BKN029
     FM171800 13015KT P6SM BKN060
     FM180000 13012KT P6SM BKN080
      AMD LTD TO CLD VIS AND WIND=



000
FTUS45 KGGW 170500
TAFOLF
TAF
KOLF 170520Z 1706/1806 09009KT P6SM OVC028
     FM171500 10013KT P6SM BKN028
     FM171800 10013KT P6SM OVC050=



000
FTUS45 KGGW 170500
TAFGGW
TAF
KGGW 170520Z 1706/1806 11012KT P6SM OVC035
     FM180000 11012KT P6SM SCT120=



000
FTUS45 KGGW 170500
TAFGDV
TAF
KGDV 170520Z 1706/1806 10007KT P6SM OVC027
     FM171500 13011KT P6SM BKN026
     FM180000 12011KT P6SM SCT100
      AMD LTD TO CLD VIS AND WIND=



000
FTUS45 KGGW 170500
TAFSDY
TAF
KSDY 170520Z 1706/1806 11008KT P6SM OVC024
     FM171500 12012KT P6SM OVC016
     FM171800 12012KT P6SM OVC025
     FM172100 13013KT P6SM BKN050
      AMD LTD TO CLD VIS AND WIND=



000
FTUS45 KGGW 170200 AAA
TAFSDY
TAF AMD
KSDY 170225Z 1702/1724 09010KT P6SM OVC025
     FM171900 14013KT P6SM OVC050
      AMD LTD TO CLD VIS AND WIND=



000
FTUS45 KGGW 170200 AAA
TAFGDV
TAF AMD
KGDV 170225Z 1702/1724 08010KT P6SM BKN025 OVC035
     FM171800 14013KT P6SM OVC050
      AMD LTD TO CLD VIS AND WIND=



000
FTUS45 KGGW 170200 AAA
TAFOLF
TAF AMD
KOLF 170224Z 1702/1724 09010KT P6SM OVC035
     FM171800 13012KT P6SM OVC090=



000
FTUS45 KGGW 170200 AAA
TAFGGW
TAF AMD
KGGW 170222Z 1702/1724 10010KT P6SM OVC050
     FM171800 12013KT P6SM BKN100=



000
FTUS45 KGGW 162300
TAFOLF
TAF
KOLF 162323Z 1700/1724 09011KT P6SM BKN035
     FM170900 09009KT P6SM OVC015
     FM171700 13012KT P6SM OVC080=



000
FTUS45 KGGW 162300
TAFGGW
TAF
KGGW 162323Z 1700/1724 10012KT P6SM BKN035
     FM170900 10017KT P6SM OVC025
     FM171700 14020KT P6SM OVC070=



000
FTUS45 KGGW 162300
TAFSDY
TAF
KSDY 162323Z 1700/1724 09010KT P6SM OVC025
     FM170300 10008KT P6SM SCT025 OVC035
     FM170900 08009KT P6SM OVC015
     FM171600 14013KT P6SM OVC050
      AMD LTD TO CLD VIS AND WIND=



000
FTUS45 KGGW 162300
TAFGDV
TAF
KGDV 162323Z 1700/1724 07010KT P6SM BKN025 OVC035
     FM170300 08010KT P6SM SCT025 OVC035
     FM171000 09011KT P6SM OVC011
     FM171500 14013KT P6SM OVC050
      AMD LTD TO CLD VIS AND WIND=



000
FTUS45 KGGW 162000 AAA
TAFSDY
TAF AMD
KSDY 162051Z 1621/1718 06009KT P6SM OVC025
     FM162200 09010KT P6SM SCT025 OVC035
     FM170400 10008KT P6SM BKN030
     FM170900 11009KT P6SM OVC015
      AMD LTD TO CLD VIS AND WIND=



000
FTUS45 KGGW 162000 AAA
TAFGDV
TAF AMD
KGDV 162050Z 1621/1718 03009KT P6SM BKN025
     FM162200 07010KT P6SM SCT025 OVC035
     FM170000 08010KT 6SM -SHSN OVC025
     FM171100 10010KT P6SM OVC011
      AMD LTD TO CLD VIS AND WIND=



000
FTUS45 KGGW 162000 AAA
TAFOLF
TAF AMD
KOLF 162048Z 1621/1718 07008KT P6SM OVC021
     FM162100 09009KT P6SM OVC030
     FM170300 08011KT P6SM BKN040
     FM170900 09010KT P6SM OVC007=



000
FTUS45 KGGW 161700
TAFSDY
TAF
KSDY 161736Z 1618/1718 08009KT P6SM OVC021
     FM162200 09010KT P6SM SCT025 OVC040
     FM170400 10008KT P6SM BKN030
     FM170900 11009KT P6SM OVC015
      AMD LTD TO CLD VIS AND WIND=



000
FTUS45 KGGW 161700
TAFGGW
TAF
KGGW 161736Z 1618/1718 09008KT P6SM OVC021
     FM162000 10009KT P6SM SCT022 OVC040
     FM170200 09011KT P6SM BKN035
     FM170800 11015KT P6SM OVC007=



000
FTUS45 KGGW 161700
TAFGDV
TAF
KGDV 161736Z 1618/1718 03011KT P6SM BKN020
     FM162100 07010KT P6SM SCT025 OVC050
     FM170000 08010KT 6SM -SHSN OVC025
     FM171100 10010KT P6SM OVC011
      AMD LTD TO CLD VIS AND WIND=



000
FTUS45 KGGW 161700
TAFOLF
TAF
KOLF 161736Z 1618/1718 07008KT P6SM OVC021
     FM162100 08008KT P6SM SCT021 OVC050
     FM170300 08011KT P6SM BKN040
     FM170900 09010KT P6SM OVC007=



000
FTUS45 KGGW 161400 AAA
TAFSDY
TAF AMD
KSDY 161447Z 1615/1712 06010KT P6SM OVC016
     FM161900 07012KT P6SM OVC050
     FM170400 11008KT P6SM BKN100
      AMD LTD TO CLD VIS AND WIND=



000
FTUS45 KGGW 161400 AAA
TAFGDV
TAF AMD
KGDV 161417Z 1614/1712 04011KT P6SM SCT016
     FM161500 03011KT P6SM BKN020
     FM162000 05012KT P6SM OVC050
     FM170400 09009KT P6SM BKN100
      AMD LTD TO CLD VIS AND WIND=



000
FTUS45 KGGW 161300 AAA
TAFOLF
TAF AMD
KOLF 161316Z 1613/1712 06011KT P6SM BKN020
     FM161900 09010KT P6SM OVC050
     FM170400 07008KT P6SM BKN100=



000
FTUS45 KGGW 161100
TAFGDV
TAF
KGDV 161127Z 1612/1712 04011KT P6SM BKN100
     FM161400 03011KT P6SM BKN020
     FM162000 05012KT P6SM OVC050
     FM170400 09009KT P6SM BKN100
      AMD LTD TO CLD VIS AND WIND=



000
FTUS45 KGGW 161100
TAFOLF
TAF
KOLF 161127Z 1612/1712 04011KT P6SM SCT015
      TEMPO 1612/1613 BKN015
     FM161300 05011KT P6SM OVC015
     FM161900 09010KT P6SM OVC050
     FM170400 07008KT P6SM BKN100=



000
FTUS45 KGGW 161100
TAFGGW
TAF
KGGW 161127Z 1612/1712 07008KT P6SM SCT015
      TEMPO 1612/1613 BKN015
     FM161300 04010KT P6SM OVC015
     FM161900 09010KT P6SM OVC050
     FM170200 09015KT P6SM BKN100=



000
FTUS45 KGGW 161100
TAFSDY
TAF
KSDY 161127Z 1612/1712 04011KT P6SM SCT020
      TEMPO 1612/1613 BKN020
     FM161300 03011KT P6SM OVC020
     FM161900 07012KT P6SM OVC050
     FM170400 11008KT P6SM BKN100
      AMD LTD TO CLD VIS AND WIND=



000
FTUS45 KGGW 160500
TAFGDV
TAF
KGDV 160520Z 1606/1706 01011KT P6SM VCSH BKN090
     FM161200 02012KT P6SM BKN035
     FM161800 05012KT P6SM OVC050
      AMD LTD TO CLD VIS AND WIND=



000
FTUS45 KGGW 160500
TAFSDY
TAF
KSDY 160520Z 1606/1706 04011KT P6SM VCSH BKN080
     FM161200 03011KT P6SM OVC026
     FM161800 07012KT P6SM OVC050
      AMD LTD TO CLD VIS AND WIND=



000
FTUS45 KGGW 160500
TAFOLF
TAF
KOLF 160520Z 1606/1706 04012KT P6SM VCSH BKN100
     FM161200 05011KT P6SM OVC022
     FM161800 09010KT P6SM OVC050=



000
FTUS45 KGGW 160500
TAFGGW
TAF
KGGW 160520Z 1606/1706 03011KT P6SM VCSH BKN140
     FM161200 04010KT P6SM OVC030
     FM161800 09010KT P6SM OVC050=



    US Dept of Commerce
    National Oceanic and Atmospheric Administration
    National Weather Service
    1325 East West Highway
    Silver Spring, MD 20910
    Page Author: NWS Internet Services Team
Disclaimer
Information Quality
Credits
Glossary
Privacy Policy
Freedom of Information Act (FOIA)
About Us
Career Opportunities